Individual YR Submissions

/Individual YR Submissions

Individual YR Submissions



Showing results for Mary Hall
Year Rounder submissions are verified and standings are posted monthly. Questions? Contact the Year Rounder team.
2017 Submissions
(Rides that have a "Y" in the standings column are included in the current standings. Verified rides not in the current standings will be included next time.)

Standings were last generated on
2018-08-16 14:57:05.
# event date event name distance (unit) elevation (unit) ride type bike type verified standings
12017-01-03Ad Hoc South loop + WRl laps91.20 miles2159 feetpersonalstandard2017-01-11YY
22017-01-09WRL group ride91.60 miles1624 feetpersonalstandard2017-01-11YY
32017-01-11RUSA Jailhouse 216k permanent solo135.40 miles4209 feetpersonalstandard2017-01-11YY
42017-02-01South loop +30 ride found on ridewithgps. Had some glitches, but97.10 miles2349 feetpersonalstandard2017-02-01YY
52017-02-11Sebring 24 hr TT drafting349.70 miles0 feetorganizedstandard2017-02-13YY
62017-02-18Willow Park 210k Brevet w/ Lone Star Randonneurs134.00 miles5230 feetorganizedstandard2017-02-19YY
72017-02-24Whiskey River 145k Permanent90.70 miles2828 feetpersonalstandard2017-02-24YY
82017-03-03Rip-Snortin' Rando Ride 203k permanent127.10 miles3711 feetpersonalstandard2017-03-03YY
92017-03-09And with the power of conviction There is no sacrifice95.20 miles1903 feetpersonalstandard2017-03-09YY
102017-03-11Fleas and Trees 400k brevet aborted173.80 miles6719 feetorganizedstandard2017-03-12YY
112017-03-17Clap along if you know what happiness is to you!90.80 miles1575 feetpersonalstandard2017-03-17YY
122017-03-19Boomer 109k Permanent + Suburban noodle ride to Garages of Texas94.10 miles2762 feetpersonalstandard2017-03-19YY
132017-03-25Buffalo Bonanza 325k Permanent w/ LSR212.10 miles5978 feetorganizedstandard2017-03-26YY
142017-04-09Celestial Jaunt 203k Permanent127.90 miles4088 feetpersonalstandard2017-04-13YY
152017-04-22Cedar Hill Beat Down92.60 miles3990 feetpersonalstandard2017-04-22YY
162017-04-28ACP Fleche..230.60 miles5747 feetorganizedstandard2017-04-29YY
172017-05-01Big group ride at the Rock90.50 miles1230 feetpersonalstandard2017-05-01YY
182017-05-12Prairie Hill Roundup 202k Permanent126.20 miles3120 feetpersonalstandard2017-05-12YY
192017-05-27La Bella Pammie 355k221.80 miles4101 feetorganizedstandard2017-05-28YY
202017-06-02KOMA 200k Permanent126.00 miles4127 feetpersonalstandard2017-06-04YY
212017-06-21WRL91.20 miles1329 feetpersonalstandard2017-06-22YY
222017-06-30Bobcat Bites 103k ++90.30 miles2100 feetpersonalstandard2017-06-30YY
232017-07-04Celestial Jaunt 203k Permanent + bonus miles134.10 miles4226 feetpersonalstandard2017-07-04YY
242017-07-11I'm too hot! Call the Police and the Fireman90.80 miles1214 feetpersonalstandard2017-07-12YY
252017-07-13Universal Salutations of Peace Transmit out from me to you91.50 miles1270 feetpersonalstandard2017-07-13YY
262017-07-30Celestial Jaunt 203k Permanent126.80 miles3819 feetpersonalstandard2017-07-30YY
272017-08-12Itasca (two gear) Disasta 207k permanent129.00 miles3271 feetpersonalstandard2017-08-13YY
282017-08-15Out here cruising to a backroad song I feel the wheels like a me91.20 miles1329 feetpersonalstandard2017-08-16YY
292017-08-19Honey Do 200k Permanent125.60 miles3615 feetpersonalstandard2017-08-19YY
302017-08-29I Know you've got mountains to climb, but Always stay humble and93.10 miles1388 feetpersonalstandard2017-08-29YY
312017-09-02Mineral Wells 600k Day 1225.40 miles8445 feetorganizedstandard2017-09-04YY
322017-09-03Mineral Wells 600k Day 2147.50 miles4534 feetorganizedstandard2017-09-04YY
332017-09-09Whiskey River 145k Permanent on Tandem90.50 miles2392 feetpersonaltandem2017-09-09YY
342017-09-16Celestial Jaunt 200k Permanent126.60 miles3950 feetpersonalstandard2017-09-17YY
352017-09-30Peacocks and Buzzards 300k Brevet 197.93 miles6240 feetorganizedstandard2017-10-01YY
362017-10-07OK is OK 217k ACP Brevet135.10 miles2707 feetorganizedstandard2017-10-08YY
372017-11-03Haulin' the Mail 200k Permanent124.50 miles2227 feetpersonalstandard2017-11-05YY